createdAt,value
2023-01-04T00:02:33.885Z,151.82
2023-01-04T00:05:15.932Z,150.95
2023-01-04T00:08:04.767Z,151.30
2023-01-04T00:10:46.920Z,153.18
2023-01-04T00:13:35.733Z,147.73
2023-01-04T00:16:30.157Z,150.85
2023-01-04T00:19:11.673Z,150.15
2023-01-04T00:21:59.923Z,151.93
2023-01-04T00:24:41.612Z,142.77
2023-01-04T00:27:30.024Z,147.65
2023-01-04T00:30:12.754Z,146.27
2023-01-04T00:33:02.112Z,147.00
2023-01-04T00:35:46.230Z,146.55
2023-01-04T00:38:34.930Z,144.00
2023-01-04T00:41:49.256Z,146.77
2023-01-04T00:47:13.720Z,143.00
2023-01-04T00:49:55.848Z,145.27
2023-01-04T00:52:44.670Z,148.98
2023-01-04T00:55:39.641Z,149.13
2023-01-04T00:58:27.908Z,153.52
2023-01-04T01:01:14.650Z,154.05
2023-01-04T01:04:07.299Z,153.38
2023-01-04T01:06:50.798Z,147.05
2023-01-04T01:09:38.929Z,150.23
2023-01-04T01:12:21.746Z,144.73
2023-01-04T01:15:04.022Z,145.70
2023-01-04T01:17:52.637Z,146.95
2023-01-04T01:20:34.901Z,143.60
2023-01-04T01:23:23.697Z,143.30
2023-01-04T01:26:18.677Z,144.00
2023-01-04T01:29:07.686Z,140.98
2023-01-04T01:31:50.073Z,146.27
2023-01-04T01:34:38.635Z,145.68
2023-01-04T01:37:26.973Z,139.13
2023-01-04T01:40:09.664Z,138.63
2023-01-04T01:42:52.099Z,140.70
2023-01-04T01:45:48.691Z,139.93
2023-01-04T01:48:31.518Z,138.32
2023-01-04T01:51:20.615Z,140.15
2023-01-04T01:54:21.491Z,139.52
2023-01-04T01:57:15.703Z,136.60
2023-01-04T02:00:02.064Z,131.15
2023-01-04T02:03:27.273Z,132.15
2023-01-04T02:06:12.944Z,130.18
2023-01-04T02:09:02.783Z,129.07
2023-01-04T02:11:44.966Z,131.45
2023-01-04T02:14:37.744Z,123.85
2023-01-04T02:17:25.430Z,131.02
2023-01-04T02:20:43.675Z,125.30
2023-01-04T02:24:02.663Z,127.95
2023-01-04T02:27:15.713Z,128.57
2023-01-04T02:30:32.629Z,124.72
2023-01-04T02:33:53.273Z,124.20
2023-01-04T02:36:55.581Z,123.75
2023-01-04T02:39:53.711Z,127.88
2023-01-04T02:43:15.722Z,131.85
2023-01-04T02:46:16.749Z,125.00
2023-01-04T02:49:24.692Z,127.50
2023-01-04T02:52:06.969Z,126.72
2023-01-04T02:54:57.590Z,127.88
2023-01-04T02:58:01.657Z,127.47
2023-01-04T03:01:46.841Z,123.22
2023-01-04T03:08:28.603Z,124.88
2023-01-04T03:11:39.503Z,126.90
2023-01-04T03:14:32.443Z,127.85
2023-01-04T03:17:18.623Z,127.03
2023-01-04T03:20:10.672Z,124.60
2023-01-04T03:23:22.252Z,121.93
2023-01-04T03:26:52.601Z,127.50
2023-01-04T03:30:18.106Z,124.15
2023-01-04T03:33:35.729Z,126.25
2023-01-04T03:36:42.959Z,124.53
2023-01-04T03:40:09.673Z,126.78
2023-01-04T03:43:40.442Z,130.88
2023-01-04T03:47:02.801Z,128.90
2023-01-04T03:49:58.388Z,125.43
2023-01-04T03:52:52.829Z,128.57
2023-01-04T03:55:43.939Z,130.13
2023-01-04T03:58:28.537Z,129.23
2023-01-04T04:01:19.672Z,131.05
2023-01-04T04:04:21.512Z,126.85
2023-01-04T04:07:29.690Z,128.38
2023-01-04T04:10:12.157Z,133.90
2023-01-04T04:13:00.670Z,132.63
2023-01-04T04:15:43.012Z,131.48
2023-01-04T04:18:31.597Z,133.98
2023-01-04T04:21:14.054Z,130.10
2023-01-04T04:24:05.537Z,131.93
2023-01-04T04:26:48.136Z,143.07
2023-01-04T04:29:36.659Z,140.02
2023-01-04T04:32:18.993Z,134.57
2023-01-04T04:35:07.683Z,131.77
2023-01-04T04:37:49.928Z,136.57
2023-01-04T04:40:56.698Z,130.70
2023-01-04T04:43:38.897Z,134.50
2023-01-04T04:46:27.654Z,129.52
2023-01-04T04:49:17.519Z,130.18
2023-01-04T04:52:06.614Z,131.85
2023-01-04T04:54:54.944Z,132.88
2023-01-04T04:57:36.662Z,134.95
2023-01-04T05:00:19.075Z,131.85
2023-01-04T05:03:07.777Z,139.32
2023-01-04T05:05:57.029Z,136.68
2023-01-04T05:08:38.568Z,134.95
2023-01-04T05:11:40.560Z,137.30
2023-01-04T05:14:29.696Z,133.88
2023-01-04T05:17:18.542Z,134.88
2023-01-04T05:20:00.510Z,134.43
2023-01-04T05:22:48.836Z,137.93
2023-01-04T05:25:31.577Z,135.57
2023-01-04T05:28:19.851Z,137.27
2023-01-04T05:31:03.599Z,140.77
2023-01-04T05:33:52.658Z,137.82
2023-01-04T05:36:34.932Z,139.45
2023-01-04T05:39:23.534Z,141.80
2023-01-04T05:42:30.648Z,137.43
2023-01-04T05:45:22.139Z,136.35
2023-01-04T05:48:03.597Z,140.02
2023-01-04T05:50:46.951Z,138.00
2023-01-04T05:53:35.582Z,142.23
2023-01-04T05:56:23.917Z,140.32
2023-01-04T05:59:06.545Z,139.68
2023-01-04T06:01:55.781Z,137.82
2023-01-04T06:04:37.985Z,141.68
2023-01-04T06:07:26.565Z,137.25
2023-01-04T06:10:08.864Z,137.43
2023-01-04T06:12:57.539Z,141.68
2023-01-04T06:15:46.588Z,142.38
2023-01-04T06:18:34.942Z,139.00
2023-01-04T06:21:16.912Z,136.95
2023-01-04T06:24:04.909Z,137.73
2023-01-04T06:26:47.527Z,141.75
2023-01-04T06:29:37.003Z,140.35
2023-01-04T06:32:19.638Z,138.63
2023-01-04T06:35:08.634Z,142.23
2023-01-04T06:37:50.930Z,145.75
2023-01-04T06:40:39.569Z,142.05
2023-01-04T06:43:21.932Z,141.27
2023-01-04T06:46:11.651Z,142.85
2023-01-04T06:48:55.039Z,143.52
2023-01-04T06:51:43.645Z,148.93
2023-01-04T06:54:40.481Z,194.80
2023-01-04T06:57:29.462Z,198.02
2023-01-04T07:00:13.869Z,197.07
2023-01-04T07:03:13.935Z,197.40
2023-01-04T07:05:56.927Z,190.57
2023-01-04T07:08:45.620Z,185.30
2023-01-04T07:11:27.942Z,179.05
2023-01-04T07:14:16.680Z,169.65
2023-01-04T07:16:58.976Z,178.63
2023-01-04T07:19:47.649Z,185.98
2023-01-04T07:22:29.966Z,189.40
2023-01-04T07:25:18.649Z,185.63
2023-01-04T07:28:01.906Z,171.60
2023-01-04T07:30:50.672Z,177.05
2023-01-04T07:33:33.088Z,161.13
2023-01-04T07:36:21.545Z,165.65
2023-01-04T07:39:10.503Z,166.88
2023-01-04T07:42:05.665Z,169.05
2023-01-04T07:44:48.222Z,172.65
2023-01-04T07:47:37.697Z,176.70
2023-01-04T07:50:19.796Z,181.60
2023-01-04T07:53:08.580Z,175.88
2023-01-04T07:56:01.928Z,178.85
2023-01-04T07:58:44.444Z,180.25
2023-01-04T08:01:36.596Z,178.48
2023-01-04T08:04:21.649Z,178.18
2023-01-04T08:07:09.889Z,179.82
2023-01-04T08:09:52.562Z,180.15
2023-01-04T08:12:40.843Z,184.30
2023-01-04T08:15:22.496Z,182.07
2023-01-04T08:18:11.882Z,190.60
2023-01-04T08:20:58.389Z,186.77
2023-01-04T08:23:47.539Z,180.40
2023-01-04T08:26:37.890Z,187.60
2023-01-04T08:29:19.765Z,186.52
2023-01-04T08:32:08.538Z,180.75
2023-01-04T08:34:50.807Z,179.05
2023-01-04T08:37:39.732Z,182.00
2023-01-04T08:40:21.789Z,188.15
2023-01-04T08:43:10.585Z,181.80
2023-01-04T08:45:59.522Z,184.40
2023-01-04T08:48:49.546Z,183.90
2023-01-04T08:51:37.902Z,181.13
2023-01-04T08:54:21.459Z,182.38
2023-01-04T08:57:16.636Z,184.00
2023-01-04T09:00:05.478Z,184.60
2023-01-04T09:02:47.801Z,189.82
2023-01-04T09:05:36.520Z,183.65
2023-01-04T09:08:18.886Z,185.35
2023-01-04T09:11:11.638Z,193.45
2023-01-04T09:13:54.935Z,189.53
2023-01-04T09:16:44.820Z,189.95
2023-01-04T09:19:26.885Z,183.60
2023-01-04T09:22:15.669Z,192.75
2023-01-04T09:24:57.863Z,195.45
2023-01-04T09:27:47.598Z,191.20
2023-01-04T09:30:32.760Z,190.20
2023-01-04T09:33:27.872Z,193.88
2023-01-04T09:36:26.134Z,192.82
2023-01-04T09:39:11.839Z,194.60
2023-01-04T09:42:06.837Z,194.98
2023-01-04T09:45:25.525Z,191.85
2023-01-04T09:48:25.028Z,192.13
2023-01-04T09:51:31.635Z,194.15
2023-01-04T09:54:34.442Z,192.68
2023-01-04T09:57:53.659Z,198.75
2023-01-04T10:01:11.685Z,193.82
2023-01-04T10:04:11.494Z,196.57
2023-01-04T10:06:55.372Z,194.10
2023-01-04T10:09:46.535Z,195.20
2023-01-04T10:13:17.494Z,196.82
2023-01-04T10:34:31.076Z,188.50
2023-01-04T10:37:19.188Z,185.07
2023-01-04T10:40:09.927Z,179.90
2023-01-04T10:43:07.944Z,181.05
2023-01-04T10:46:13.435Z,175.93
2023-01-04T10:49:23.972Z,176.32
2023-01-04T10:52:15.303Z,173.35
2023-01-04T10:55:11.071Z,174.45
2023-01-04T10:58:28.342Z,173.75
2023-01-04T11:01:33.173Z,182.73
2023-01-04T11:04:48.302Z,175.07
2023-01-04T11:07:50.061Z,177.95
2023-01-04T11:10:43.286Z,173.45
2023-01-04T11:13:32.900Z,172.73
2023-01-04T11:16:23.040Z,171.90
2023-01-04T11:19:13.272Z,165.82
2023-01-04T11:22:05.063Z,171.25
2023-01-04T11:25:33.073Z,159.18
2023-01-04T11:28:17.960Z,165.40
2023-01-04T11:31:18.309Z,163.02
2023-01-04T11:34:11.872Z,157.55
2023-01-04T11:36:55.355Z,155.95
2023-01-04T11:39:45.909Z,159.43
2023-01-04T11:42:30.921Z,158.65
2023-01-04T11:45:31.886Z,156.35
2023-01-04T11:48:20.900Z,152.90
2023-01-04T11:51:16.896Z,151.85
2023-01-04T11:54:11.823Z,155.23
2023-01-04T11:57:18.011Z,157.40
2023-01-04T12:00:33.043Z,158.98
2023-01-04T12:03:26.288Z,161.68
2023-01-04T12:06:08.985Z,166.30
2023-01-04T12:08:58.047Z,165.25
2023-01-04T12:11:44.305Z,168.35
2023-01-04T12:14:43.845Z,163.70
2023-01-04T12:17:52.360Z,168.13
2023-01-04T12:20:40.897Z,160.48
2023-01-04T12:23:23.403Z,166.02
2023-01-04T12:26:12.006Z,158.07
2023-01-04T12:28:59.426Z,159.32
2023-01-04T12:31:53.962Z,150.07
2023-01-04T12:34:42.362Z,145.15
2023-01-04T12:37:54.066Z,142.98
2023-01-04T12:40:48.877Z,140.77
2023-01-04T12:43:44.834Z,139.70
2023-01-04T12:46:50.340Z,144.05
2023-01-04T12:49:43.371Z,145.15
2023-01-04T12:52:47.988Z,143.73
2023-01-04T12:55:43.657Z,139.13
2023-01-04T12:59:23.665Z,146.43
2023-01-04T13:01:42.273Z,149.50
2023-01-04T13:04:44.490Z,152.97
2023-01-04T13:08:11.996Z,152.27
2023-01-04T13:10:57.003Z,144.80
2023-01-04T13:14:04.958Z,147.45
2023-01-04T13:17:18.350Z,145.13
2023-01-04T13:20:06.932Z,146.43
2023-01-04T13:23:02.297Z,145.73
2023-01-04T13:25:45.016Z,145.57
2023-01-04T13:28:33.272Z,148.10
2023-01-04T13:31:15.984Z,154.98
2023-01-04T13:34:06.280Z,153.13
2023-01-04T13:36:48.957Z,159.68
2023-01-04T13:39:38.258Z,147.63
2023-01-04T13:42:32.956Z,153.65
2023-01-04T13:45:36.307Z,148.73
2023-01-04T13:48:23.946Z,149.98
2023-01-04T13:51:36.122Z,147.23
2023-01-04T13:54:28.878Z,143.85
2023-01-04T13:57:27.980Z,145.50
2023-01-04T14:00:15.730Z,148.35
2023-01-04T14:03:41.098Z,148.57
2023-01-04T14:06:31.338Z,155.15
2023-01-04T14:09:21.054Z,145.32
2023-01-04T14:12:14.930Z,141.20
2023-01-04T14:15:09.971Z,138.73
2023-01-04T14:17:56.018Z,139.90
2023-01-04T14:20:48.862Z,142.27
2023-01-04T14:23:39.956Z,143.45
2023-01-04T14:26:48.871Z,141.27
2023-01-04T14:29:32.671Z,139.82
2023-01-04T14:32:24.024Z,146.55
2023-01-04T14:35:15.239Z,161.75
2023-01-04T14:38:04.081Z,162.80
2023-01-04T14:40:54.215Z,169.13
2023-01-04T14:44:16.908Z,157.70
2023-01-04T14:47:07.066Z,165.52
2023-01-04T14:49:56.011Z,162.68
2023-01-04T14:52:44.194Z,158.27
2023-01-04T14:55:26.938Z,155.80
2023-01-04T14:58:15.310Z,155.77
2023-01-04T15:00:56.924Z,153.38
2023-01-04T15:03:47.038Z,158.63
2023-01-04T15:06:29.214Z,157.43
2023-01-04T15:09:18.861Z,155.40
2023-01-04T15:12:01.336Z,149.93
2023-01-04T15:14:50.017Z,152.75
2023-01-04T15:17:32.208Z,153.23
2023-01-04T15:20:21.998Z,150.93
2023-01-04T15:23:04.252Z,150.68
2023-01-04T15:25:52.857Z,150.20
2023-01-04T15:28:35.209Z,147.05
2023-01-04T15:31:29.200Z,156.95
2023-01-04T15:34:19.280Z,155.20
2023-01-04T15:37:01.087Z,151.05
2023-01-04T15:39:43.120Z,152.75
2023-01-04T15:42:49.935Z,158.52
2023-01-04T15:45:38.113Z,159.23
2023-01-04T15:48:26.901Z,166.10
2023-01-04T15:51:15.906Z,162.10
2023-01-04T15:54:00.281Z,158.90
2023-01-04T15:56:49.022Z,154.48
2023-01-04T15:59:32.212Z,155.85
2023-01-04T16:02:21.334Z,163.35
2023-01-04T16:05:03.199Z,156.32
2023-01-04T16:07:56.006Z,157.73
2023-01-04T16:10:38.303Z,152.93
2023-01-04T16:13:26.857Z,152.80
2023-01-04T16:16:09.369Z,149.52
2023-01-04T16:19:00.869Z,152.98
2023-01-04T16:21:49.900Z,153.32
2023-01-04T16:25:10.026Z,157.95
2023-01-04T16:27:48.989Z,159.60
2023-01-04T16:30:36.073Z,154.80
2023-01-04T16:33:24.872Z,156.88
2023-01-04T16:36:09.667Z,153.50
2023-01-04T16:39:00.993Z,151.02
2023-01-04T16:41:44.190Z,155.30
2023-01-04T16:44:33.063Z,150.63
2023-01-04T16:47:21.384Z,151.55
2023-01-04T16:50:03.908Z,157.98
2023-01-04T16:52:46.123Z,162.60
2023-01-04T16:55:34.862Z,159.80
2023-01-04T16:58:23.868Z,163.85
2023-01-04T17:01:31.089Z,163.13
2023-01-04T17:04:21.025Z,159.68
2023-01-04T17:07:10.309Z,160.77
2023-01-04T17:09:58.538Z,164.50
2023-01-04T17:12:48.456Z,163.93
2023-01-04T17:15:45.219Z,161.60
2023-01-04T17:18:27.319Z,163.82
2023-01-04T17:21:35.836Z,162.82
2023-01-04T17:24:18.460Z,157.35
2023-01-04T17:27:06.926Z,157.10
2023-01-04T17:29:56.825Z,155.20
2023-01-04T17:32:45.945Z,153.13
2023-01-04T17:35:28.276Z,149.93
2023-01-04T17:38:16.944Z,142.07
2023-01-04T17:40:59.256Z,141.85
2023-01-04T17:43:48.878Z,138.65
2023-01-04T17:46:41.971Z,137.60
2023-01-04T17:49:32.387Z,135.52
2023-01-04T17:52:21.042Z,135.60
2023-01-04T17:55:11.220Z,129.15
2023-01-04T17:57:53.878Z,136.25
2023-01-04T18:00:36.299Z,136.98
2023-01-04T18:03:24.889Z,136.52
2023-01-04T18:06:25.319Z,139.20
2023-01-04T18:09:09.948Z,140.52
2023-01-04T18:11:59.364Z,142.43
2023-01-04T18:14:40.773Z,139.48
2023-01-04T18:17:24.317Z,142.07
2023-01-04T18:20:23.968Z,137.05
2023-01-04T18:23:07.182Z,127.88
2023-01-04T18:25:56.976Z,130.00
2023-01-04T18:28:46.226Z,126.07
2023-01-04T18:31:31.066Z,123.35
2023-01-04T18:34:20.232Z,122.38
2023-01-04T18:37:02.849Z,118.18
2023-01-04T18:39:45.327Z,117.53
2023-01-04T18:42:34.034Z,116.55
2023-01-04T18:45:24.210Z,108.57
2023-01-04T18:48:05.779Z,108.45
2023-01-04T18:50:55.348Z,110.32
2023-01-04T18:53:36.951Z,110.35
2023-01-04T18:56:26.797Z,111.47
2023-01-04T18:59:09.368Z,104.72
2023-01-04T19:01:58.090Z,109.00
2023-01-04T19:04:42.236Z,107.45
2023-01-04T19:07:30.982Z,111.18
2023-01-04T19:10:14.310Z,107.13
2023-01-04T19:13:03.197Z,116.30
2023-01-04T19:15:47.675Z,113.20
2023-01-04T19:18:36.858Z,112.90
2023-01-04T19:21:25.949Z,110.25
2023-01-04T19:24:08.353Z,114.05
2023-01-04T19:26:58.980Z,117.57
2023-01-04T19:29:47.447Z,118.18
2023-01-04T19:32:33.386Z,120.60
2023-01-04T19:35:22.220Z,115.57
2023-01-04T19:38:03.979Z,115.55
2023-01-04T19:40:52.337Z,119.72
2023-01-04T19:43:35.004Z,117.80
2023-01-04T19:46:24.465Z,116.05
2023-01-04T19:49:12.409Z,119.95
2023-01-04T19:52:05.326Z,113.57
2023-01-04T19:54:46.935Z,124.60
2023-01-04T19:57:29.151Z,117.68
2023-01-04T20:00:20.895Z,112.85
2023-01-04T20:03:10.073Z,116.00
2023-01-04T20:05:58.996Z,115.95
2023-01-04T20:08:42.600Z,113.90
2023-01-04T20:11:32.086Z,117.32
2023-01-04T20:14:20.148Z,112.85
2023-01-04T20:17:02.965Z,110.20
2023-01-04T20:19:45.139Z,107.03
2023-01-04T20:22:33.805Z,113.20
2023-01-04T20:25:22.988Z,104.78
2023-01-04T20:28:05.271Z,104.40
2023-01-04T20:30:53.971Z,107.57
2023-01-04T20:33:43.140Z,104.10
2023-01-04T20:36:30.914Z,100.22
2023-01-04T20:39:20.205Z,96.78
2023-01-04T20:42:20.931Z,97.63
2023-01-04T20:45:09.135Z,93.30
2023-01-04T20:47:50.871Z,91.72
2023-01-04T20:50:34.353Z,91.90
2023-01-04T20:53:22.836Z,94.72
2023-01-04T20:56:23.127Z,96.03
2023-01-04T20:59:11.830Z,89.70
2023-01-04T21:02:01.335Z,90.07
2023-01-04T21:04:42.936Z,101.57
2023-01-04T21:07:31.915Z,89.25
2023-01-04T21:10:14.207Z,89.50
2023-01-04T21:13:02.787Z,86.88
2023-01-04T21:15:46.197Z,89.05
2023-01-04T21:18:34.856Z,85.15
2023-01-04T21:21:21.310Z,87.13
2023-01-04T21:24:10.872Z,90.28
2023-01-04T21:26:59.781Z,88.70
2023-01-04T21:29:48.798Z,87.80
2023-01-04T21:32:31.676Z,89.88
2023-01-04T21:38:02.147Z,87.18
2023-01-04T21:40:50.813Z,84.82
2023-01-04T21:43:33.156Z,88.13
2023-01-04T21:46:23.895Z,90.13
2023-01-04T21:49:08.161Z,88.20
2023-01-04T21:51:56.910Z,90.80
2023-01-04T21:54:45.804Z,88.32
2023-01-04T21:57:34.737Z,84.57
2023-01-04T22:00:19.144Z,88.90
2023-01-04T22:03:08.029Z,84.88
2023-01-04T22:05:50.121Z,90.25
2023-01-04T22:08:38.875Z,99.35
2023-01-04T22:11:28.884Z,89.95
2023-01-04T22:14:11.647Z,96.22
2023-01-04T22:17:00.967Z,94.35
2023-01-04T22:19:49.136Z,96.43
2023-01-04T22:22:30.949Z,95.22
2023-01-04T22:25:19.853Z,98.20
2023-01-04T22:28:02.621Z,97.30
2023-01-04T22:30:51.865Z,103.10
2023-01-04T22:33:41.184Z,100.35
2023-01-04T22:36:30.205Z,99.25
2023-01-04T22:39:12.852Z,100.13
2023-01-04T22:42:01.810Z,104.50
2023-01-04T22:44:44.130Z,103.65
2023-01-04T22:47:32.780Z,105.10
2023-01-04T22:50:15.229Z,103.07
2023-01-04T22:53:03.887Z,105.97
2023-01-04T22:56:23.532Z,104.95
2023-01-04T22:59:04.840Z,103.63
2023-01-04T23:01:48.170Z,105.22
2023-01-04T23:04:36.830Z,102.03
2023-01-04T23:07:19.142Z,107.15
2023-01-04T23:10:07.831Z,105.93
2023-01-04T23:12:56.762Z,107.03
2023-01-04T23:15:48.013Z,107.72
2023-01-04T23:18:30.131Z,107.47
2023-01-04T23:21:18.887Z,113.38
2023-01-04T23:24:01.145Z,113.32
2023-01-04T23:26:50.855Z,120.72
2023-01-04T23:29:33.141Z,116.25
2023-01-04T23:32:21.808Z,115.60
2023-01-04T23:35:17.776Z,114.18
2023-01-04T23:38:06.794Z,110.53
2023-01-04T23:41:01.716Z,112.75
2023-01-04T23:43:50.071Z,118.35
2023-01-04T23:46:31.762Z,115.00
2023-01-04T23:49:21.121Z,115.25
2023-01-04T23:52:03.721Z,113.47
2023-01-04T23:54:52.897Z,111.63
2023-01-04T23:57:35.108Z,110.28
